Stratford, New Jersey
Current Conditions -  °F | °C
As of 4:54 PM on Thursday 23 Oct 2014 (Local Time) from KVAY Reporting Station
Overcast Overcast  
Wind Chill: 55°   Ceiling: 5500
Heat Index: 55°   Visibility: 10mi
Dew Point: 45°   Wind: 9mph
Humidity: 69%   Direction: 320°NW
Pressure: 29.75"   Gusts: 20mph
Location:  39.83°N, 75.01°W
Report Text: KVAY 232054Z AUTO 32008G17KT 270V340 10SM SCT037 BKN055 OVC100 13/07 A2975 RMK AO2 SLP074 60001 T01280072 53001
Loading
Personal Weather Stations






























Interactive Weather Map
Tropical Storm Tracking
New forecast layout! Learn more

10-Day Weather Forecast

Advertisements
Track Severe Weather on mobile